createdAt,value
2023-03-22T00:00:41.277Z,9.78
2023-03-22T00:03:12.902Z,9.78
2023-03-22T00:05:44.705Z,9.74
2023-03-22T00:08:16.517Z,9.68
2023-03-22T00:10:48.041Z,9.67
2023-03-22T00:13:19.866Z,9.73
2023-03-22T00:15:51.503Z,9.70
2023-03-22T00:18:23.779Z,9.74
2023-03-22T00:20:57.523Z,9.70
2023-03-22T00:23:29.515Z,9.69
2023-03-22T00:26:01.037Z,9.63
2023-03-22T00:28:32.574Z,9.63
2023-03-22T00:31:04.973Z,9.64
2023-03-22T00:33:37.439Z,9.65
2023-03-22T00:36:11.529Z,9.67
2023-03-22T00:38:44.262Z,9.71
2023-03-22T00:41:17.185Z,9.68
2023-03-22T00:43:50.306Z,9.75
2023-03-22T00:46:22.248Z,9.82
2023-03-22T00:48:53.897Z,9.80
2023-03-22T00:51:25.548Z,9.83
2023-03-22T00:53:57.151Z,9.87
2023-03-22T00:56:28.931Z,9.91
2023-03-22T00:59:00.653Z,9.86
2023-03-22T01:01:32.244Z,9.83
2023-03-22T01:04:05.447Z,9.82
2023-03-22T01:06:37.169Z,9.85
2023-03-22T01:09:09.280Z,9.81
2023-03-22T01:11:43.052Z,9.85
2023-03-22T01:14:14.562Z,9.79
2023-03-22T01:16:46.163Z,9.84
2023-03-22T01:19:17.959Z,9.86
2023-03-22T01:21:50.072Z,9.80
2023-03-22T01:24:21.704Z,9.81
2023-03-22T01:26:53.379Z,9.76
2023-03-22T01:29:25.790Z,9.78
2023-03-22T01:31:57.147Z,9.71
2023-03-22T01:34:28.690Z,9.74
2023-03-22T01:37:00.287Z,9.70
2023-03-22T01:39:32.262Z,9.69
2023-03-22T01:42:03.912Z,9.67
2023-03-22T01:44:36.915Z,9.60
2023-03-22T01:47:10.868Z,9.55
2023-03-22T01:49:42.604Z,9.50
2023-03-22T01:52:15.458Z,9.52
2023-03-22T01:54:52.583Z,9.46
2023-03-22T01:57:24.777Z,9.41
2023-03-22T01:59:56.368Z,9.36
2023-03-22T02:02:30.831Z,9.38
2023-03-22T02:05:04.205Z,9.35
2023-03-22T02:07:38.345Z,9.32
2023-03-22T02:10:15.739Z,9.31
2023-03-22T02:13:02.688Z,9.32
2023-03-22T02:15:51.658Z,9.33
2023-03-22T02:18:50.282Z,9.33
2023-03-22T02:21:36.534Z,9.25
2023-03-22T02:24:34.826Z,9.26
2023-03-22T02:27:35.897Z,9.19
2023-03-22T02:30:37.219Z,9.18
2023-03-22T02:33:50.431Z,9.13
2023-03-22T02:36:40.609Z,9.05
2023-03-22T02:39:17.813Z,9.07
2023-03-22T02:41:57.532Z,9.01
2023-03-22T02:44:45.252Z,8.91
2023-03-22T02:47:20.673Z,8.88
2023-03-22T02:49:52.170Z,8.85
2023-03-22T02:52:32.371Z,8.80
2023-03-22T02:55:12.569Z,8.78
2023-03-22T02:57:50.516Z,8.69
2023-03-22T03:00:22.273Z,8.68
2023-03-22T03:03:00.078Z,8.64
2023-03-22T03:05:33.499Z,8.59
2023-03-22T03:08:07.057Z,8.51
2023-03-22T03:10:41.571Z,8.52
2023-03-22T03:13:16.211Z,8.46
2023-03-22T03:15:59.255Z,8.39
2023-03-22T03:18:46.547Z,8.35
2023-03-22T03:21:18.118Z,8.30
2023-03-22T03:24:01.820Z,8.36
2023-03-22T03:26:44.770Z,8.31
2023-03-22T03:29:25.517Z,8.28
2023-03-22T03:32:08.237Z,8.24
2023-03-22T03:34:43.653Z,8.21
2023-03-22T03:37:53.690Z,8.25
2023-03-22T03:40:40.686Z,8.19
2023-03-22T03:43:12.991Z,8.19
2023-03-22T03:45:44.887Z,8.13
2023-03-22T03:48:26.424Z,8.06
2023-03-22T03:51:00.231Z,8.10
2023-03-22T03:53:32.115Z,8.09
2023-03-22T03:56:03.966Z,8.09
2023-03-22T03:58:35.525Z,8.06
2023-03-22T04:01:07.362Z,8.03
2023-03-22T04:03:38.941Z,8.02
2023-03-22T04:06:10.448Z,7.97
2023-03-22T04:08:45.452Z,8.00
2023-03-22T04:11:17.047Z,8.01
2023-03-22T04:13:48.614Z,7.99
2023-03-22T04:16:20.205Z,8.03
2023-03-22T04:18:52.002Z,7.96
2023-03-22T04:21:23.686Z,8.03
2023-03-22T04:23:55.981Z,8.08
2023-03-22T04:26:27.370Z,8.09
2023-03-22T04:28:59.268Z,8.13
2023-03-22T04:31:32.580Z,8.14
2023-03-22T04:34:07.108Z,8.17
2023-03-22T04:36:41.863Z,8.14
2023-03-22T04:39:13.696Z,8.16
2023-03-22T04:41:45.252Z,8.19
2023-03-22T04:44:16.913Z,8.15
2023-03-22T04:46:49.864Z,8.13
2023-03-22T04:49:21.935Z,8.11
2023-03-22T04:51:57.579Z,8.08
2023-03-22T04:54:29.375Z,8.06
2023-03-22T04:57:01.044Z,8.05
2023-03-22T04:59:34.722Z,8.03
2023-03-22T05:02:06.457Z,8.03
2023-03-22T05:04:38.052Z,8.02
2023-03-22T05:07:09.533Z,7.99
2023-03-22T05:09:41.546Z,7.97
2023-03-22T05:12:13.891Z,7.87
2023-03-22T05:14:45.403Z,7.84
2023-03-22T05:17:17.034Z,7.85
2023-03-22T05:19:48.748Z,7.82
2023-03-22T05:22:22.492Z,7.85
2023-03-22T05:24:54.017Z,7.81
2023-03-22T05:27:31.510Z,7.82
2023-03-22T05:30:04.102Z,7.78
2023-03-22T05:32:37.505Z,7.79
2023-03-22T05:35:09.536Z,7.82
2023-03-22T05:37:41.555Z,7.82
2023-03-22T05:40:13.444Z,7.83
2023-03-22T05:42:45.444Z,7.84
2023-03-22T05:45:18.604Z,7.89
2023-03-22T05:47:50.570Z,7.88
2023-03-22T05:50:23.600Z,7.90
2023-03-22T05:52:55.135Z,7.94
2023-03-22T05:55:27.150Z,8.00
2023-03-22T05:58:02.038Z,8.03
2023-03-22T06:00:35.748Z,8.06
2023-03-22T06:03:08.250Z,8.08
2023-03-22T06:05:39.805Z,8.17
2023-03-22T06:08:12.632Z,8.13
2023-03-22T06:10:44.318Z,8.22
2023-03-22T06:13:15.945Z,8.23
2023-03-22T06:15:47.672Z,8.34
2023-03-22T06:18:19.296Z,8.44
2023-03-22T06:20:50.865Z,8.53
2023-03-22T06:23:22.759Z,8.58
2023-03-22T06:25:54.386Z,8.69
2023-03-22T06:28:29.805Z,8.76
2023-03-22T06:31:09.563Z,8.82
2023-03-22T06:33:41.309Z,8.93
2023-03-22T06:36:12.863Z,9.02
2023-03-22T06:38:44.459Z,9.11
2023-03-22T06:41:16.043Z,9.13
2023-03-22T06:43:47.578Z,9.22
2023-03-22T06:46:19.202Z,9.32
2023-03-22T06:48:50.799Z,9.42
2023-03-22T06:51:22.494Z,9.51
2023-03-22T06:53:54.555Z,9.58
2023-03-22T06:56:27.023Z,9.62
2023-03-22T06:58:58.597Z,9.64
2023-03-22T07:01:31.976Z,9.73
2023-03-22T07:04:04.070Z,9.81
2023-03-22T07:06:35.914Z,9.94
2023-03-22T07:09:10.288Z,9.93
2023-03-22T07:11:43.564Z,10.02
2023-03-22T07:14:15.414Z,10.13
2023-03-22T07:16:46.995Z,10.21
2023-03-22T07:19:18.756Z,10.32
2023-03-22T07:21:50.399Z,10.40
2023-03-22T07:24:22.007Z,10.46
2023-03-22T07:26:53.763Z,10.49
2023-03-22T07:29:25.385Z,10.50
2023-03-22T07:31:57.190Z,10.53
2023-03-22T07:34:28.852Z,10.59
2023-03-22T07:37:00.426Z,10.67
2023-03-22T07:39:34.286Z,10.78
2023-03-22T07:42:06.812Z,10.81
2023-03-22T07:44:38.469Z,10.91
2023-03-22T07:47:10.029Z,10.97
2023-03-22T07:49:41.669Z,11.06
2023-03-22T07:52:13.260Z,11.13
2023-03-22T07:54:44.796Z,11.16
2023-03-22T07:57:16.538Z,11.28
2023-03-22T07:59:48.043Z,11.37
2023-03-22T08:02:19.888Z,11.50
2023-03-22T08:04:56.515Z,11.59
2023-03-22T08:07:30.331Z,11.70
2023-03-22T08:10:02.169Z,11.81
2023-03-22T08:12:33.811Z,11.91
2023-03-22T08:15:06.114Z,12.01
2023-03-22T08:17:37.686Z,12.15
2023-03-22T08:20:09.673Z,12.24
2023-03-22T08:22:42.443Z,12.32
2023-03-22T08:25:16.947Z,12.43
2023-03-22T08:27:48.801Z,12.54
2023-03-22T08:30:22.110Z,12.62
2023-03-22T08:32:53.662Z,12.68
2023-03-22T08:35:25.497Z,12.73
2023-03-22T08:37:57.164Z,12.77
2023-03-22T08:40:28.798Z,12.82
2023-03-22T08:43:00.827Z,12.86
2023-03-22T08:45:32.553Z,12.88
2023-03-22T08:48:04.481Z,12.95
2023-03-22T08:50:36.100Z,13.05
2023-03-22T08:53:07.647Z,13.17
2023-03-22T08:55:40.148Z,13.25
2023-03-22T08:58:12.903Z,13.33
2023-03-22T09:00:49.002Z,13.45
2023-03-22T09:03:21.193Z,13.49
2023-03-22T09:05:52.840Z,13.51
2023-03-22T09:08:24.378Z,13.60
2023-03-22T09:10:56.234Z,13.73
2023-03-22T09:13:28.605Z,13.87
2023-03-22T09:16:01.633Z,13.91
2023-03-22T09:18:33.334Z,13.93
2023-03-22T09:21:07.318Z,14.01
2023-03-22T09:23:39.420Z,14.02
2023-03-22T09:26:11.290Z,14.04
2023-03-22T09:28:43.315Z,14.21
2023-03-22T09:31:15.186Z,14.32
2023-03-22T09:33:47.212Z,14.46
2023-03-22T09:36:20.032Z,14.52
2023-03-22T09:38:51.602Z,14.63
2023-03-22T09:41:39.701Z,14.69
2023-03-22T09:44:18.417Z,14.76
2023-03-22T09:46:53.953Z,14.77
2023-03-22T09:49:50.502Z,14.93
2023-03-22T09:52:24.697Z,15.06
2023-03-22T09:54:56.281Z,15.10
2023-03-22T09:57:35.223Z,15.21
2023-03-22T10:00:18.839Z,15.39
2023-03-22T10:03:01.820Z,15.31
2023-03-22T10:05:36.672Z,15.43
2023-03-22T10:08:22.652Z,15.58
2023-03-22T10:10:54.497Z,15.45
2023-03-22T10:13:40.565Z,15.46
2023-03-22T10:16:21.183Z,15.74
2023-03-22T10:19:01.686Z,15.93
2023-03-22T10:21:33.718Z,16.07
2023-03-22T10:24:18.358Z,16.04
2023-03-22T10:26:51.312Z,16.25
2023-03-22T10:29:35.085Z,16.29
2023-03-22T10:32:22.684Z,16.39
2023-03-22T10:34:54.487Z,16.35
2023-03-22T10:37:34.919Z,16.31
2023-03-22T10:40:08.428Z,16.29
2023-03-22T10:42:41.294Z,16.37
2023-03-22T10:45:15.929Z,16.55
2023-03-22T10:48:00.052Z,16.61
2023-03-22T10:50:40.749Z,16.52
2023-03-22T10:53:46.012Z,16.70
2023-03-22T10:56:20.139Z,16.87
2023-03-22T10:58:52.382Z,16.95
2023-03-22T11:01:31.476Z,16.82
2023-03-22T11:04:14.439Z,17.12
2023-03-22T11:06:54.598Z,17.18
2023-03-22T11:09:27.087Z,17.35
2023-03-22T11:11:59.468Z,17.55
2023-03-22T11:14:35.633Z,17.54
2023-03-22T11:17:12.613Z,17.49
2023-03-22T11:19:54.888Z,17.62
2023-03-22T11:22:26.339Z,17.67
2023-03-22T11:24:59.015Z,17.94
2023-03-22T11:27:36.373Z,17.89
2023-03-22T11:30:22.081Z,17.82
2023-03-22T11:33:17.958Z,17.63
2023-03-22T11:35:56.683Z,17.95
2023-03-22T11:38:36.488Z,17.97
2023-03-22T11:41:15.389Z,18.13
2023-03-22T11:43:54.105Z,18.07
2023-03-22T11:46:26.122Z,18.30
2023-03-22T11:49:04.214Z,18.58
2023-03-22T11:51:39.156Z,18.20
2023-03-22T11:54:20.891Z,18.59
2023-03-22T11:56:57.968Z,18.56
2023-03-22T11:59:37.156Z,18.53
2023-03-22T12:02:18.301Z,18.75
2023-03-22T12:04:57.498Z,18.78
2023-03-22T12:07:31.926Z,18.77
2023-03-22T12:10:24.678Z,18.60
2023-03-22T12:13:03.215Z,18.96
2023-03-22T12:15:48.414Z,19.16
2023-03-22T12:18:23.045Z,19.31
2023-03-22T12:20:55.851Z,19.39
2023-03-22T12:23:30.821Z,19.42
2023-03-22T12:26:13.012Z,19.18
2023-03-22T12:28:53.729Z,19.12
2023-03-22T12:31:31.530Z,19.37
2023-03-22T12:34:18.904Z,19.39
2023-03-22T12:36:56.786Z,19.58
2023-03-22T12:39:39.848Z,19.72
2023-03-22T12:42:26.533Z,19.38
2023-03-22T12:45:28.985Z,19.56
2023-03-22T12:48:07.028Z,19.94
2023-03-22T12:50:48.871Z,19.73
2023-03-22T12:53:25.791Z,19.55
2023-03-22T12:55:58.556Z,19.62
2023-03-22T12:58:30.420Z,19.91
2023-03-22T13:01:20.896Z,19.71
2023-03-22T13:03:55.407Z,19.80
2023-03-22T13:06:33.245Z,19.57
2023-03-22T13:09:16.223Z,19.65
2023-03-22T13:12:09.214Z,19.65
2023-03-22T13:14:51.211Z,19.95
2023-03-22T13:17:22.612Z,20.14
2023-03-22T13:19:58.355Z,20.50
2023-03-22T13:22:35.968Z,20.60
2023-03-22T13:25:12.501Z,20.76
2023-03-22T13:28:03.911Z,20.98
2023-03-22T13:30:47.740Z,21.36
2023-03-22T13:33:29.391Z,21.81
2023-03-22T13:36:07.264Z,22.78
2023-03-22T13:38:44.660Z,24.48
2023-03-22T13:41:33.616Z,24.75
2023-03-22T13:44:51.917Z,25.20
2023-03-22T13:47:35.472Z,25.83
2023-03-22T13:50:12.175Z,26.54
2023-03-22T13:52:56.899Z,27.05
2023-03-22T13:55:47.059Z,26.72
2023-03-22T13:58:36.679Z,26.77
2023-03-22T14:01:26.649Z,27.52
2023-03-22T14:04:01.259Z,27.55
2023-03-22T14:06:39.105Z,26.86
2023-03-22T14:09:29.621Z,28.98
2023-03-22T14:12:21.378Z,29.98
2023-03-22T14:14:57.378Z,31.35
2023-03-22T14:17:48.778Z,31.83
2023-03-22T14:20:24.735Z,30.70
